createdAt,value
2023-03-31T00:00:21.340Z,99557.11
2023-03-31T00:02:54.803Z,99551.77
2023-03-31T00:05:09.092Z,99545.97
2023-03-31T00:07:24.394Z,99544.35
2023-03-31T00:09:37.015Z,99547.17
2023-03-31T00:11:50.304Z,99550.44
2023-03-31T00:14:03.402Z,99553.81
2023-03-31T00:16:16.258Z,99553.51
2023-03-31T00:18:30.140Z,99552.70
2023-03-31T00:20:42.998Z,99552.80
2023-03-31T00:22:57.551Z,99549.32
2023-03-31T00:25:12.992Z,99547.48
2023-03-31T00:27:28.191Z,99544.20
2023-03-31T00:29:41.607Z,99538.91
2023-03-31T00:31:55.445Z,99536.60
2023-03-31T00:34:08.120Z,99539.20
2023-03-31T00:36:29.725Z,99541.81
2023-03-31T00:38:46.518Z,99541.64
2023-03-31T00:41:00.254Z,99541.63
2023-03-31T00:43:39.195Z,99539.02
2023-03-31T00:45:52.613Z,99532.09
2023-03-31T00:48:16.454Z,99533.80
2023-03-31T00:50:41.247Z,99534.48
2023-03-31T00:52:59.441Z,99528.40
2023-03-31T00:55:17.070Z,99521.35
2023-03-31T00:57:39.229Z,99517.06
2023-03-31T01:00:01.950Z,99514.23
2023-03-31T01:02:15.747Z,99506.70
2023-03-31T01:04:33.700Z,99505.69
2023-03-31T01:07:03.971Z,99503.30
2023-03-31T01:09:16.940Z,99502.80
2023-03-31T01:11:31.568Z,99502.65
2023-03-31T01:13:45.942Z,99503.16
2023-03-31T01:15:58.582Z,99505.48
2023-03-31T01:18:14.597Z,99507.79
2023-03-31T01:20:36.535Z,99508.83
2023-03-31T01:23:26.873Z,99504.13
2023-03-31T01:26:01.370Z,99500.98
2023-03-31T01:28:41.062Z,99497.58
2023-03-31T01:31:16.726Z,99498.34
2023-03-31T01:33:58.990Z,99495.05
2023-03-31T01:36:53.117Z,99491.31
2023-03-31T01:39:28.246Z,99491.13
2023-03-31T01:42:07.256Z,99493.31
2023-03-31T01:44:36.143Z,99488.23
2023-03-31T01:46:58.094Z,99489.17
2023-03-31T01:49:31.718Z,99487.47
2023-03-31T01:52:25.836Z,99485.96
2023-03-31T01:54:54.234Z,99478.18
2023-03-31T01:57:24.563Z,99480.34
2023-03-31T01:59:46.044Z,99485.04
2023-03-31T02:02:11.355Z,99485.30
2023-03-31T02:04:30.282Z,99479.09
2023-03-31T02:06:49.954Z,99477.23
2023-03-31T02:09:06.701Z,99478.27
2023-03-31T02:11:20.596Z,99476.59
2023-03-31T02:13:37.173Z,99477.05
2023-03-31T02:15:57.855Z,99474.92
2023-03-31T02:18:18.621Z,99478.92
2023-03-31T02:20:32.479Z,99475.81
2023-03-31T02:22:50.931Z,99466.95
2023-03-31T02:25:06.233Z,99467.15
2023-03-31T02:27:33.390Z,99469.98
2023-03-31T02:29:45.989Z,99468.70
2023-03-31T02:32:09.248Z,99470.63
2023-03-31T02:34:21.906Z,99473.20
2023-03-31T02:36:35.297Z,99471.75
2023-03-31T02:38:52.752Z,99466.80
2023-03-31T02:41:06.488Z,99459.42
2023-03-31T02:43:19.123Z,99454.15
2023-03-31T02:45:37.561Z,99452.79
2023-03-31T02:47:50.340Z,99447.34
2023-03-31T02:50:05.719Z,99444.45
2023-03-31T02:52:50.240Z,99443.98
2023-03-31T02:55:05.686Z,99437.98
2023-03-31T02:57:37.379Z,99438.15
2023-03-31T03:00:06.069Z,99434.63
2023-03-31T03:02:24.323Z,99431.21
2023-03-31T03:04:43.266Z,99428.97
2023-03-31T03:07:09.941Z,99429.04
2023-03-31T03:09:47.272Z,99427.34
2023-03-31T03:12:27.561Z,99422.86
2023-03-31T03:14:56.031Z,99418.67
2023-03-31T03:17:17.277Z,99417.89
2023-03-31T03:19:29.849Z,99419.77
2023-03-31T03:21:42.353Z,99417.69
2023-03-31T03:23:55.031Z,99420.70
2023-03-31T03:26:09.051Z,99420.17
2023-03-31T03:28:21.542Z,99420.41
2023-03-31T03:30:34.189Z,99417.96
2023-03-31T03:32:47.158Z,99415.41
2023-03-31T03:35:00.889Z,99414.16
2023-03-31T03:37:13.471Z,99411.84
2023-03-31T03:39:26.133Z,99410.39
2023-03-31T03:41:38.948Z,99409.02
2023-03-31T03:43:51.568Z,99409.57
2023-03-31T03:46:05.336Z,99408.40
2023-03-31T03:48:19.187Z,99409.27
2023-03-31T03:50:31.716Z,99410.75
2023-03-31T03:52:44.248Z,99410.13
2023-03-31T03:54:56.787Z,99408.63
2023-03-31T03:57:09.549Z,99409.06
2023-03-31T03:59:22.332Z,99401.55
2023-03-31T04:01:35.019Z,99403.82
2023-03-31T04:03:47.656Z,99404.35
2023-03-31T04:06:00.379Z,99400.08
2023-03-31T04:08:12.873Z,99399.08
2023-03-31T04:10:25.543Z,99396.86
2023-03-31T04:12:38.101Z,99401.53
2023-03-31T04:14:50.779Z,99398.80
2023-03-31T04:17:03.502Z,99398.49
2023-03-31T04:19:19.204Z,99393.75
2023-03-31T04:21:34.839Z,99393.52
2023-03-31T04:23:47.577Z,99387.08
2023-03-31T04:26:00.670Z,99384.92
2023-03-31T04:28:14.648Z,99383.81
2023-03-31T04:30:39.848Z,99381.27
2023-03-31T04:32:55.548Z,99377.32
2023-03-31T04:35:08.596Z,99373.46
2023-03-31T04:37:21.160Z,99365.79
2023-03-31T04:39:33.695Z,99364.66
2023-03-31T04:41:46.237Z,99355.52
2023-03-31T04:43:58.771Z,99355.81
2023-03-31T04:46:11.439Z,99355.00
2023-03-31T04:48:24.033Z,99354.64
2023-03-31T04:50:37.249Z,99356.55
2023-03-31T04:52:49.815Z,99353.73
2023-03-31T04:55:02.567Z,99353.06
2023-03-31T04:57:15.297Z,99350.80
2023-03-31T04:59:27.875Z,99347.90
2023-03-31T05:01:45.505Z,99347.21
2023-03-31T05:03:59.573Z,99345.81
2023-03-31T05:06:12.147Z,99344.55
2023-03-31T05:08:24.813Z,99346.71
2023-03-31T05:10:37.686Z,99344.99
2023-03-31T05:12:50.500Z,99343.84
2023-03-31T05:15:04.775Z,99340.33
2023-03-31T05:17:18.489Z,99343.17
2023-03-31T05:19:31.596Z,99341.25
2023-03-31T05:21:44.179Z,99340.88
2023-03-31T05:23:57.580Z,99340.77
2023-03-31T05:26:10.788Z,99337.33
2023-03-31T05:28:23.323Z,99333.70
2023-03-31T05:30:35.920Z,99334.35
2023-03-31T05:32:48.496Z,99326.42
2023-03-31T05:35:01.118Z,99323.52
2023-03-31T05:37:13.782Z,99318.69
2023-03-31T05:39:26.971Z,99321.30
2023-03-31T05:41:40.028Z,99327.98
2023-03-31T05:43:52.609Z,99328.59
2023-03-31T05:46:07.114Z,99331.21
2023-03-31T05:48:19.985Z,99326.47
2023-03-31T05:50:32.540Z,99328.02
2023-03-31T05:52:45.270Z,99328.59
2023-03-31T05:54:57.815Z,99321.33
2023-03-31T05:57:10.942Z,99317.27
2023-03-31T05:59:23.586Z,99319.55
2023-03-31T06:01:36.283Z,99316.41
2023-03-31T06:03:49.721Z,99306.48
2023-03-31T06:06:02.995Z,99302.62
2023-03-31T06:08:15.557Z,99300.53
2023-03-31T06:10:30.906Z,99297.67
2023-03-31T06:12:43.449Z,99297.63
2023-03-31T06:14:55.998Z,99298.71
2023-03-31T06:17:08.637Z,99295.58
2023-03-31T06:19:21.199Z,99294.13
2023-03-31T06:21:34.278Z,99295.55
2023-03-31T06:23:46.896Z,99291.00
2023-03-31T06:26:04.924Z,99292.34
2023-03-31T06:28:17.951Z,99292.86
2023-03-31T06:30:30.626Z,99291.34
2023-03-31T06:32:43.202Z,99294.13
2023-03-31T06:34:55.925Z,99294.67
2023-03-31T06:37:08.455Z,99290.23
2023-03-31T06:39:21.031Z,99285.39
2023-03-31T06:41:33.590Z,99279.17
2023-03-31T06:43:46.454Z,99280.25
2023-03-31T06:45:59.411Z,99280.15
2023-03-31T06:48:12.062Z,99278.14
2023-03-31T06:50:24.557Z,99273.70
2023-03-31T06:52:37.138Z,99267.91
2023-03-31T06:54:49.657Z,99270.55
2023-03-31T06:57:02.217Z,99273.84
2023-03-31T06:59:14.835Z,99271.39
2023-03-31T07:01:27.760Z,99270.28
2023-03-31T07:03:40.897Z,99269.27
2023-03-31T07:05:54.724Z,99260.18
2023-03-31T07:08:07.605Z,99256.25
2023-03-31T07:10:20.508Z,99255.47
2023-03-31T07:12:34.124Z,99253.58
2023-03-31T07:14:46.935Z,99251.92
2023-03-31T07:16:59.928Z,99248.77
2023-03-31T07:19:13.547Z,99244.38
2023-03-31T07:21:26.482Z,99232.98
2023-03-31T07:23:39.457Z,99229.27
2023-03-31T07:25:52.394Z,99226.85
2023-03-31T07:28:06.690Z,99220.48
2023-03-31T07:30:20.942Z,99223.41
2023-03-31T07:32:34.049Z,99218.82
2023-03-31T07:34:46.903Z,99212.77
2023-03-31T07:36:59.911Z,99210.12
2023-03-31T07:39:12.923Z,99203.61
2023-03-31T07:41:26.380Z,99212.71
2023-03-31T07:43:39.796Z,99214.00
2023-03-31T07:45:52.795Z,99218.77
2023-03-31T07:48:06.154Z,99213.08
2023-03-31T07:50:21.204Z,99214.29
2023-03-31T07:52:34.549Z,99212.83
2023-03-31T07:54:47.619Z,99207.65
2023-03-31T07:57:03.466Z,99207.19
2023-03-31T07:59:16.710Z,99207.40
2023-03-31T08:01:30.238Z,99203.44
2023-03-31T08:03:44.930Z,99197.54
2023-03-31T08:05:58.043Z,99199.98
2023-03-31T08:08:11.181Z,99198.37
2023-03-31T08:10:26.971Z,99200.48
2023-03-31T08:12:39.962Z,99192.65
2023-03-31T08:14:54.453Z,99188.34
2023-03-31T08:17:07.672Z,99189.71
2023-03-31T08:19:20.626Z,99187.64
2023-03-31T08:21:34.778Z,99188.35
2023-03-31T08:23:48.069Z,99188.08
2023-03-31T08:26:17.230Z,99188.19
2023-03-31T08:28:30.888Z,99187.02
2023-03-31T08:30:44.087Z,99188.71
2023-03-31T08:32:56.747Z,99178.15
2023-03-31T08:35:10.017Z,99173.77
2023-03-31T08:37:22.587Z,99169.96
2023-03-31T08:39:37.150Z,99165.16
2023-03-31T08:42:03.027Z,99157.50
2023-03-31T08:44:37.748Z,99153.14
2023-03-31T08:46:54.568Z,99153.39
2023-03-31T08:49:10.865Z,99157.46
2023-03-31T08:51:33.888Z,99149.20
2023-03-31T08:54:03.493Z,99143.27
2023-03-31T08:56:18.484Z,99144.59
2023-03-31T08:58:45.900Z,99137.87
2023-03-31T09:01:20.543Z,99131.01
2023-03-31T09:04:20.712Z,99129.23
2023-03-31T09:06:49.545Z,99122.15
2023-03-31T09:09:08.593Z,99118.96
2023-03-31T09:11:38.918Z,99116.44
2023-03-31T09:14:07.196Z,99111.47
2023-03-31T09:16:48.871Z,99112.82
2023-03-31T09:19:03.038Z,99111.41
2023-03-31T09:21:38.756Z,99106.40
2023-03-31T09:24:00.319Z,99104.20
2023-03-31T09:26:24.068Z,99106.33
2023-03-31T09:28:39.940Z,99109.47
2023-03-31T09:30:54.554Z,99103.85
2023-03-31T09:33:32.291Z,99103.35
2023-03-31T09:35:46.555Z,99099.61
2023-03-31T09:37:59.884Z,99097.61
2023-03-31T09:40:24.070Z,99093.75
2023-03-31T09:42:38.376Z,99092.42
2023-03-31T09:44:51.227Z,99088.77
2023-03-31T09:47:10.936Z,99085.05
2023-03-31T09:49:28.574Z,99081.91
2023-03-31T09:51:48.977Z,99085.36
2023-03-31T09:54:12.740Z,99081.59
2023-03-31T09:56:43.476Z,99077.14
2023-03-31T09:59:02.585Z,99071.16
2023-03-31T10:01:15.901Z,99065.14
2023-03-31T10:03:30.904Z,99061.76
2023-03-31T10:05:52.350Z,99060.89
2023-03-31T10:08:19.275Z,99058.30
2023-03-31T10:10:33.728Z,99047.85
2023-03-31T10:12:51.949Z,99044.70
2023-03-31T10:15:37.335Z,99038.79
2023-03-31T10:20:20.074Z,99036.61
2023-03-31T10:22:32.831Z,99027.31
2023-03-31T10:24:46.219Z,99023.86
2023-03-31T10:27:00.494Z,99023.66
2023-03-31T10:29:15.364Z,99022.23
2023-03-31T10:31:36.530Z,99023.65
2023-03-31T10:33:51.182Z,99024.27
2023-03-31T10:36:14.058Z,99019.41
2023-03-31T10:38:34.699Z,99016.88
2023-03-31T10:40:52.978Z,99013.86
2023-03-31T10:43:15.025Z,99000.10
2023-03-31T10:45:37.787Z,98994.28
2023-03-31T10:47:54.885Z,98990.02
2023-03-31T10:50:15.681Z,98985.95
2023-03-31T10:52:28.280Z,98980.06
2023-03-31T10:54:46.967Z,98978.33
2023-03-31T10:57:03.311Z,98977.11
2023-03-31T10:59:59.488Z,98972.75
2023-03-31T11:02:50.373Z,98967.52
2023-03-31T11:05:31.723Z,98957.58
2023-03-31T11:07:48.746Z,98960.55
2023-03-31T11:10:21.235Z,98955.70
2023-03-31T11:12:44.543Z,98950.79
2023-03-31T11:15:16.411Z,98942.54
2023-03-31T11:17:48.487Z,98942.77
2023-03-31T11:20:12.733Z,98929.92
2023-03-31T11:23:11.756Z,98928.35
2023-03-31T11:25:44.349Z,98925.91
2023-03-31T11:28:27.162Z,98916.35
2023-03-31T11:31:10.294Z,98912.95
2023-03-31T11:33:40.634Z,98906.43
2023-03-31T11:36:12.013Z,98898.42
2023-03-31T11:38:38.444Z,98896.90
2023-03-31T11:41:04.094Z,98899.83
2023-03-31T11:43:43.763Z,98893.86
2023-03-31T11:46:10.110Z,98887.38
2023-03-31T11:48:44.817Z,98886.57
2023-03-31T11:51:00.363Z,98883.51
2023-03-31T11:53:20.990Z,98878.90
2023-03-31T11:55:35.240Z,98873.73
2023-03-31T11:57:56.840Z,98870.10
2023-03-31T12:00:23.063Z,98868.80
2023-03-31T12:02:44.000Z,98864.92
2023-03-31T12:04:57.758Z,98856.23
2023-03-31T12:07:22.499Z,98857.92
2023-03-31T12:09:54.044Z,98860.57
2023-03-31T12:12:12.094Z,98859.36
2023-03-31T12:14:31.149Z,98862.50
2023-03-31T12:16:45.935Z,98858.58
2023-03-31T12:19:17.088Z,98858.11
2023-03-31T12:21:32.714Z,98854.71
2023-03-31T12:23:46.082Z,98851.26
2023-03-31T12:26:31.133Z,98845.62
2023-03-31T12:28:45.982Z,98842.89
2023-03-31T12:31:01.159Z,98840.07
2023-03-31T12:33:22.253Z,98833.31
2023-03-31T12:35:51.120Z,98835.05
2023-03-31T12:38:25.358Z,98828.10
2023-03-31T12:40:51.693Z,98827.50
2023-03-31T12:43:36.581Z,98830.92
2023-03-31T12:46:18.677Z,98829.39
2023-03-31T12:48:55.465Z,98824.99
2023-03-31T12:51:40.676Z,98825.48
2023-03-31T12:54:07.027Z,98815.44
2023-03-31T12:56:19.619Z,98813.82
2023-03-31T12:58:37.782Z,98807.94
2023-03-31T13:01:18.122Z,98799.80
2023-03-31T13:03:52.464Z,98797.02
2023-03-31T13:06:06.065Z,98791.75
2023-03-31T13:08:51.437Z,98789.08
2023-03-31T13:11:04.146Z,98782.75
2023-03-31T13:13:17.543Z,98782.27
2023-03-31T13:15:31.264Z,98787.20
2023-03-31T13:17:57.160Z,98781.00
2023-03-31T13:20:35.872Z,98782.21
2023-03-31T13:22:48.668Z,98776.23
2023-03-31T13:25:29.134Z,98777.73
2023-03-31T13:27:49.799Z,98777.44
2023-03-31T13:30:02.559Z,98772.73
2023-03-31T13:32:23.508Z,98767.56
2023-03-31T13:34:42.232Z,98760.44
2023-03-31T13:37:20.628Z,98756.83
2023-03-31T13:39:42.188Z,98749.73
2023-03-31T13:42:16.646Z,98741.58
2023-03-31T13:45:03.103Z,98740.80
2023-03-31T13:47:41.055Z,98733.64
2023-03-31T13:50:09.009Z,98731.77
2023-03-31T13:52:44.260Z,98728.63
2023-03-31T13:55:07.033Z,98723.69
2023-03-31T13:57:47.958Z,98719.66
2023-03-31T14:00:29.893Z,98717.92
2023-03-31T14:03:06.987Z,98711.02
2023-03-31T14:05:22.805Z,98706.68
2023-03-31T14:07:43.554Z,98701.41
2023-03-31T14:09:58.326Z,98699.59
2023-03-31T14:12:30.271Z,98697.70
2023-03-31T14:14:42.839Z,98689.43
2023-03-31T14:16:58.241Z,98684.40
2023-03-31T14:19:34.476Z,98680.02
2023-03-31T14:22:09.754Z,98674.25
2023-03-31T14:24:52.216Z,98671.67
2023-03-31T14:27:30.807Z,98667.32
2023-03-31T14:29:57.850Z,98661.44
2023-03-31T14:32:23.102Z,98663.80
2023-03-31T14:35:09.745Z,98658.05
2023-03-31T14:37:24.934Z,98652.36
2023-03-31T14:39:42.960Z,98649.35
2023-03-31T14:41:59.266Z,98645.35
2023-03-31T14:44:16.085Z,98641.11
2023-03-31T14:46:35.092Z,98632.13
2023-03-31T14:48:50.168Z,98631.44
2023-03-31T14:51:10.671Z,98624.70
2023-03-31T14:53:25.930Z,98622.29
2023-03-31T14:55:57.441Z,98621.14
2023-03-31T14:58:15.778Z,98614.55
2023-03-31T15:00:32.471Z,98612.05
2023-03-31T15:02:46.972Z,98610.23
2023-03-31T15:05:03.242Z,98600.28
2023-03-31T15:07:17.172Z,98601.70
2023-03-31T15:09:33.492Z,98601.94
2023-03-31T15:11:48.570Z,98603.94
2023-03-31T15:14:05.060Z,98611.42
2023-03-31T15:16:44.890Z,98609.23
2023-03-31T15:19:00.132Z,98605.78
2023-03-31T15:21:24.625Z,98606.88
2023-03-31T15:23:40.441Z,98603.43
2023-03-31T15:26:04.061Z,98596.88
2023-03-31T15:28:18.107Z,98595.81
2023-03-31T15:30:31.057Z,98596.95
2023-03-31T15:32:44.248Z,98597.19
2023-03-31T15:37:41.389Z,98596.55
2023-03-31T15:39:59.786Z,98588.36
2023-03-31T15:42:12.687Z,98589.41
2023-03-31T15:44:48.273Z,98591.33
2023-03-31T15:47:06.484Z,98592.50
2023-03-31T15:49:24.472Z,98593.21
2023-03-31T15:51:41.326Z,98594.95
2023-03-31T15:53:54.750Z,98596.42
2023-03-31T15:56:07.463Z,98597.15
2023-03-31T15:58:43.758Z,98594.13
2023-03-31T16:01:04.719Z,98594.10
2023-03-31T16:03:35.365Z,98594.77
2023-03-31T16:05:56.171Z,98591.77
2023-03-31T16:08:38.650Z,98587.17
2023-03-31T16:10:58.581Z,98585.92
2023-03-31T16:13:17.575Z,98581.48
2023-03-31T16:15:53.098Z,98579.11
2023-03-31T16:18:31.228Z,98580.07
2023-03-31T16:20:51.369Z,98583.98
2023-03-31T16:23:14.706Z,98584.26
2023-03-31T16:25:30.940Z,98577.92
2023-03-31T16:27:47.375Z,98575.10
2023-03-31T16:30:13.153Z,98574.58
2023-03-31T16:32:26.113Z,98579.27
2023-03-31T16:34:59.355Z,98570.37
2023-03-31T16:37:12.424Z,98559.46
2023-03-31T16:39:24.961Z,98556.66
2023-03-31T16:41:38.160Z,98551.54
2023-03-31T16:43:54.240Z,98550.19
2023-03-31T16:46:06.813Z,98546.73
2023-03-31T16:48:21.483Z,98543.70
2023-03-31T16:50:35.306Z,98539.83
2023-03-31T16:52:47.855Z,98533.97
2023-03-31T16:55:01.259Z,98528.09
2023-03-31T16:57:15.290Z,98522.33
2023-03-31T16:59:28.094Z,98520.05
2023-03-31T17:01:41.113Z,98521.95
2023-03-31T17:03:54.890Z,98519.15
2023-03-31T17:06:10.698Z,98518.52
2023-03-31T17:08:27.494Z,98517.51
2023-03-31T17:10:40.909Z,98521.27
2023-03-31T17:12:53.432Z,98523.53
2023-03-31T17:15:06.620Z,98520.25
2023-03-31T17:17:19.163Z,98518.54
2023-03-31T17:19:31.873Z,98516.45
2023-03-31T17:21:44.389Z,98521.08
2023-03-31T17:23:56.991Z,98520.06
2023-03-31T17:26:12.962Z,98517.73
2023-03-31T17:28:25.651Z,98517.13
2023-03-31T17:30:39.451Z,98521.30
2023-03-31T17:32:52.803Z,98517.77
2023-03-31T17:35:06.890Z,98517.55
2023-03-31T17:37:20.201Z,98513.20
2023-03-31T17:39:32.794Z,98510.98
2023-03-31T17:41:45.361Z,98511.38
2023-03-31T17:43:57.969Z,98510.86
2023-03-31T17:46:12.616Z,98511.04
2023-03-31T17:48:26.493Z,98509.14
2023-03-31T17:50:39.311Z,98511.48
2023-03-31T17:52:52.298Z,98513.14
2023-03-31T17:55:05.674Z,98514.38
2023-03-31T17:57:18.589Z,98510.64
2023-03-31T17:59:31.663Z,98513.14
2023-03-31T18:01:44.788Z,98515.33
2023-03-31T18:03:57.709Z,98518.30
2023-03-31T18:06:12.905Z,98523.43
2023-03-31T18:08:25.489Z,98529.30
2023-03-31T18:10:40.529Z,98534.35
2023-03-31T18:12:54.970Z,98533.19
2023-03-31T18:15:10.315Z,98535.77
2023-03-31T18:17:22.888Z,98534.18
2023-03-31T18:19:35.428Z,98532.89
2023-03-31T18:21:48.128Z,98532.23
2023-03-31T18:24:00.683Z,98530.44
2023-03-31T18:26:14.123Z,98529.66
2023-03-31T18:28:26.782Z,98527.80
2023-03-31T18:30:39.414Z,98529.59
2023-03-31T18:32:53.306Z,98527.30
2023-03-31T18:35:06.937Z,98528.19
2023-03-31T18:37:19.538Z,98526.52
2023-03-31T18:39:32.247Z,98526.09
2023-03-31T18:41:47.656Z,98529.52
2023-03-31T18:44:00.400Z,98529.20
2023-03-31T18:46:14.403Z,98524.14
2023-03-31T18:48:27.580Z,98523.04
2023-03-31T18:50:40.215Z,98521.55
2023-03-31T18:52:54.385Z,98527.31
2023-03-31T18:55:07.765Z,98533.85
2023-03-31T18:57:20.428Z,98532.12
2023-03-31T18:59:33.196Z,98534.74
2023-03-31T19:01:45.841Z,98532.84
2023-03-31T19:03:58.656Z,98532.77
2023-03-31T19:06:11.402Z,98532.24
2023-03-31T19:08:23.995Z,98530.99
2023-03-31T19:10:36.662Z,98532.33
2023-03-31T19:12:49.354Z,98533.82
2023-03-31T19:15:02.078Z,98531.19
2023-03-31T19:17:15.134Z,98531.04
2023-03-31T19:19:28.339Z,98536.55
2023-03-31T19:21:41.729Z,98535.71
2023-03-31T19:23:54.280Z,98535.16
2023-03-31T19:26:07.247Z,98534.35
2023-03-31T19:28:22.224Z,98534.55
2023-03-31T19:30:35.052Z,98539.17
2023-03-31T19:32:48.952Z,98540.72
2023-03-31T19:35:01.838Z,98544.19
2023-03-31T19:37:15.312Z,98548.98
2023-03-31T19:39:28.645Z,98551.98
2023-03-31T19:41:41.655Z,98556.64
2023-03-31T19:43:54.877Z,98557.65
2023-03-31T19:46:07.531Z,98556.93
2023-03-31T19:48:20.864Z,98556.87
2023-03-31T19:50:33.450Z,98553.16
2023-03-31T19:52:49.811Z,98550.48
2023-03-31T19:55:02.758Z,98546.52
2023-03-31T19:57:16.025Z,98547.62
2023-03-31T19:59:28.817Z,98545.73
2023-03-31T20:01:41.700Z,98550.80
2023-03-31T20:03:54.683Z,98554.59
2023-03-31T20:06:12.631Z,98562.35
2023-03-31T20:08:25.181Z,98566.83
2023-03-31T20:10:37.885Z,98565.83
2023-03-31T20:12:51.844Z,98566.09
2023-03-31T20:15:04.817Z,98562.42
2023-03-31T20:17:17.627Z,98562.66
2023-03-31T20:19:30.283Z,98564.49
2023-03-31T20:21:44.204Z,98564.02
2023-03-31T20:23:58.714Z,98569.48
2023-03-31T20:26:14.206Z,98571.42
2023-03-31T20:28:27.857Z,98571.45
2023-03-31T20:30:40.582Z,98575.42
2023-03-31T20:32:53.153Z,98577.27
2023-03-31T20:35:07.061Z,98573.98
2023-03-31T20:37:19.593Z,98578.35
2023-03-31T20:39:32.197Z,98579.25
2023-03-31T20:41:44.966Z,98577.60
2023-03-31T20:43:57.883Z,98581.42
2023-03-31T20:46:10.867Z,98586.09
2023-03-31T20:48:24.759Z,98594.18
2023-03-31T20:50:39.468Z,98594.52
2023-03-31T20:52:52.593Z,98604.54
2023-03-31T20:55:06.128Z,98604.81
2023-03-31T20:57:18.722Z,98610.76
2023-03-31T20:59:31.511Z,98604.86
2023-03-31T21:01:47.148Z,98602.86
2023-03-31T21:04:01.662Z,98600.47
2023-03-31T21:06:16.282Z,98601.73
2023-03-31T21:08:28.851Z,98604.20
2023-03-31T21:10:46.515Z,98603.62
2023-03-31T21:12:59.968Z,98601.95
2023-03-31T21:15:12.947Z,98597.01
2023-03-31T21:17:25.690Z,98590.98
2023-03-31T21:19:38.262Z,98586.95
2023-03-31T21:21:51.004Z,98585.83
2023-03-31T21:24:03.943Z,98587.40
2023-03-31T21:26:16.568Z,98585.45
2023-03-31T21:28:32.375Z,98585.37
2023-03-31T21:30:56.664Z,98586.48
2023-03-31T21:33:09.270Z,98582.66
2023-03-31T21:35:22.241Z,98587.30
2023-03-31T21:37:36.547Z,98586.90
2023-03-31T21:39:49.060Z,98584.23
2023-03-31T21:42:01.595Z,98582.30
2023-03-31T21:44:14.898Z,98583.84
2023-03-31T21:46:29.768Z,98586.62
2023-03-31T21:48:42.519Z,98584.16
2023-03-31T21:50:56.109Z,98584.11
2023-03-31T21:53:10.423Z,98583.46
2023-03-31T21:55:23.140Z,98581.25
2023-03-31T21:57:35.762Z,98584.83
2023-03-31T21:59:48.366Z,98589.87
2023-03-31T22:02:00.998Z,98592.08
2023-03-31T22:04:14.230Z,98593.75
2023-03-31T22:06:26.898Z,98599.39
2023-03-31T22:08:39.661Z,98597.59
2023-03-31T22:10:53.072Z,98602.93
2023-03-31T22:13:05.817Z,98600.45
2023-03-31T22:15:18.559Z,98603.09
2023-03-31T22:17:31.488Z,98602.32
2023-03-31T22:19:44.538Z,98605.09
2023-03-31T22:21:58.322Z,98609.33
2023-03-31T22:24:13.430Z,98612.77
2023-03-31T22:26:28.619Z,98610.50
2023-03-31T22:28:41.387Z,98608.98
2023-03-31T22:30:53.943Z,98607.16
2023-03-31T22:33:06.605Z,98606.73
2023-03-31T22:35:19.229Z,98607.08
2023-03-31T22:37:32.164Z,98612.87
2023-03-31T22:39:44.828Z,98608.52
2023-03-31T22:41:57.361Z,98612.20
2023-03-31T22:44:10.996Z,98605.90
2023-03-31T22:46:24.095Z,98608.03
2023-03-31T22:48:36.727Z,98607.78
2023-03-31T22:50:49.272Z,98608.59
2023-03-31T22:53:02.358Z,98607.70
2023-03-31T22:55:14.972Z,98608.04
2023-03-31T22:57:28.824Z,98611.70
2023-03-31T22:59:41.699Z,98615.50
2023-03-31T23:01:54.303Z,98613.27
2023-03-31T23:04:06.929Z,98610.74
2023-03-31T23:06:19.475Z,98612.17
2023-03-31T23:08:33.315Z,98611.81
2023-03-31T23:10:57.997Z,98610.02
2023-03-31T23:13:11.912Z,98608.46
2023-03-31T23:15:25.082Z,98606.72
2023-03-31T23:17:37.800Z,98606.00
2023-03-31T23:19:51.214Z,98606.38
2023-03-31T23:22:03.877Z,98604.11
2023-03-31T23:24:19.650Z,98596.49
2023-03-31T23:26:33.409Z,98593.27
2023-03-31T23:28:49.211Z,98586.41
2023-03-31T23:31:02.100Z,98584.92
2023-03-31T23:33:14.912Z,98578.91
2023-03-31T23:35:27.599Z,98577.30
2023-03-31T23:37:40.917Z,98575.48
2023-03-31T23:39:53.515Z,98570.77
2023-03-31T23:42:07.310Z,98568.81
2023-03-31T23:44:20.202Z,98567.68
2023-03-31T23:46:33.735Z,98565.56
2023-03-31T23:48:46.415Z,98567.81
2023-03-31T23:50:58.992Z,98567.94
2023-03-31T23:53:12.252Z,98566.96
2023-03-31T23:55:25.934Z,98566.61
2023-03-31T23:57:38.473Z,98568.06
2023-03-31T23:59:52.389Z,98566.83
